createdAt,value
2017-07-06T00:00:35.592Z,1020.53
2017-07-06T00:01:37.459Z,1020.51
2017-07-06T00:02:39.333Z,1020.48
2017-07-06T00:03:53.479Z,1020.49
2017-07-06T00:04:55.379Z,1020.49
2017-07-06T00:05:57.272Z,1020.52
2017-07-06T00:06:59.162Z,1020.49
2017-07-06T00:08:00.970Z,1020.54
2017-07-06T00:09:02.798Z,1020.49
2017-07-06T00:10:04.671Z,1020.49
2017-07-06T00:11:06.566Z,1020.50
2017-07-06T00:12:08.442Z,1020.48
2017-07-06T00:13:22.610Z,1020.54
2017-07-06T00:14:24.481Z,1020.53
2017-07-06T00:15:26.377Z,1020.55
2017-07-06T00:16:28.250Z,1020.53
2017-07-06T00:17:30.079Z,1020.53
2017-07-06T00:18:31.886Z,1020.53
2017-07-06T00:19:33.759Z,1020.52
2017-07-06T00:20:35.631Z,1020.54
2017-07-06T00:21:37.527Z,1020.50
2017-07-06T00:22:51.672Z,1020.49
2017-07-06T00:23:53.575Z,1020.55
2017-07-06T00:24:55.465Z,1020.53
2017-07-06T00:25:57.333Z,1020.57
2017-07-06T00:26:59.144Z,1020.55
2017-07-06T00:28:00.976Z,1020.58
2017-07-06T00:29:02.872Z,1020.54
2017-07-06T00:30:04.770Z,1020.55
2017-07-06T00:31:06.664Z,1020.56
2017-07-06T00:32:20.808Z,1020.56
2017-07-06T00:33:22.686Z,1020.54
2017-07-06T00:34:24.584Z,1020.55
2017-07-06T00:35:26.480Z,1020.53
2017-07-06T00:36:28.316Z,1020.57
2017-07-06T00:37:30.143Z,1020.59
2017-07-06T00:38:32.016Z,1020.55
2017-07-06T00:39:33.913Z,1020.55
2017-07-06T00:40:35.805Z,1020.56
2017-07-06T00:41:49.952Z,1020.61
2017-07-06T00:42:51.846Z,1020.61
2017-07-06T00:43:53.744Z,1020.62
2017-07-06T00:44:55.637Z,1020.64
2017-07-06T00:45:57.472Z,1020.66
2017-07-06T00:46:59.311Z,1020.63
2017-07-06T00:48:01.195Z,1020.64
2017-07-06T00:49:03.069Z,1020.63
2017-07-06T00:50:04.963Z,1020.61
2017-07-06T00:51:19.111Z,1020.59
2017-07-06T00:52:21.010Z,1020.56
2017-07-06T00:53:22.907Z,1020.58
2017-07-06T00:54:24.785Z,1020.56
2017-07-06T00:55:26.613Z,1020.57
2017-07-06T00:56:28.418Z,1020.56
2017-07-06T00:57:30.313Z,1020.57
2017-07-06T00:58:32.183Z,1020.59
2017-07-06T00:59:34.078Z,1020.60
2017-07-06T01:00:48.244Z,1020.59
2017-07-06T01:01:50.148Z,1020.51
2017-07-06T01:02:52.038Z,1020.51
2017-07-06T01:03:53.932Z,1020.45
2017-07-06T01:04:55.732Z,1020.45
2017-07-06T01:05:57.539Z,1020.49
2017-07-06T01:06:59.412Z,1020.51
2017-07-06T01:08:01.308Z,1020.50
2017-07-06T01:09:03.177Z,1020.45
2017-07-06T01:10:17.347Z,1020.47
2017-07-06T01:11:19.241Z,1020.47
2017-07-06T01:12:21.132Z,1020.51
2017-07-06T01:13:23.007Z,1020.49
2017-07-06T01:14:24.840Z,1020.45
2017-07-06T01:15:26.648Z,1020.51
2017-07-06T01:16:28.521Z,1020.51
2017-07-06T01:17:30.395Z,1020.50
2017-07-06T01:18:32.293Z,1020.51
2017-07-06T01:19:46.435Z,1020.48
2017-07-06T01:20:48.330Z,1020.52
2017-07-06T01:21:50.205Z,1020.49
2017-07-06T01:22:52.102Z,1020.47
2017-07-06T01:23:53.937Z,1020.51
2017-07-06T01:24:55.735Z,1020.48
2017-07-06T01:25:57.611Z,1020.48
2017-07-06T01:26:59.486Z,1020.41
2017-07-06T01:28:01.376Z,1020.44
2017-07-06T01:29:15.521Z,1020.47
2017-07-06T01:30:17.390Z,1020.48
2017-07-06T01:31:19.263Z,1020.52
2017-07-06T01:32:21.153Z,1020.49
2017-07-06T01:33:22.966Z,1020.47
2017-07-06T01:34:24.798Z,1020.43
2017-07-06T01:35:26.690Z,1020.45
2017-07-06T01:36:28.558Z,1020.44
2017-07-06T01:37:30.436Z,1020.45
2017-07-06T01:38:44.609Z,1020.44
2017-07-06T01:39:46.503Z,1020.43
2017-07-06T01:40:48.374Z,1020.43
2017-07-06T01:41:50.247Z,1020.44
2017-07-06T01:42:52.059Z,1020.47
2017-07-06T01:43:53.887Z,1020.47
2017-07-06T01:44:55.757Z,1020.52
2017-07-06T01:45:57.626Z,1020.57
2017-07-06T01:46:59.526Z,1020.56
2017-07-06T01:48:13.699Z,1020.56
2017-07-06T01:49:15.596Z,1020.56
2017-07-06T01:50:17.483Z,1020.57
2017-07-06T01:51:19.402Z,1020.55
2017-07-06T01:52:21.238Z,1020.56
2017-07-06T01:53:23.041Z,1020.59
2017-07-06T01:54:24.918Z,1020.56
2017-07-06T01:55:26.819Z,1020.56
2017-07-06T01:56:28.704Z,1020.57
2017-07-06T01:57:42.849Z,1020.56
2017-07-06T01:58:44.747Z,1020.58
2017-07-06T01:59:46.635Z,1020.57
2017-07-06T02:00:48.512Z,1020.58
2017-07-06T02:01:50.345Z,1020.59
2017-07-06T02:02:52.150Z,1020.58
2017-07-06T02:03:54.024Z,1020.57
2017-07-06T02:04:55.922Z,1020.57
2017-07-06T02:05:57.793Z,1020.52
2017-07-06T02:07:11.960Z,1020.50
2017-07-06T02:08:13.836Z,1020.48
2017-07-06T02:09:15.736Z,1020.48
2017-07-06T02:10:17.629Z,1020.52
2017-07-06T02:11:19.467Z,1020.55
2017-07-06T02:12:21.270Z,1020.58
2017-07-06T02:13:23.167Z,1020.54
2017-07-06T02:14:25.059Z,1020.59
2017-07-06T02:15:26.926Z,1020.56
2017-07-06T02:16:41.074Z,1020.54
2017-07-06T02:17:42.970Z,1020.55
2017-07-06T02:18:44.869Z,1020.59
2017-07-06T02:19:46.764Z,1020.55
2017-07-06T02:20:48.595Z,1020.52
2017-07-06T02:21:50.404Z,1020.51
2017-07-06T02:22:52.307Z,1020.52
2017-07-06T02:23:54.201Z,1020.49
2017-07-06T02:24:56.103Z,1020.46
2017-07-06T02:26:10.248Z,1020.48
2017-07-06T02:27:12.117Z,1020.47
2017-07-06T02:28:13.986Z,1020.50
2017-07-06T02:29:15.882Z,1020.51
2017-07-06T02:30:17.689Z,1020.53
2017-07-06T02:31:19.514Z,1020.56
2017-07-06T02:32:21.391Z,1020.56
2017-07-06T02:33:23.259Z,1020.57
2017-07-06T02:34:25.131Z,1020.57
2017-07-06T02:35:39.309Z,1020.61
2017-07-06T02:36:41.206Z,1020.56
2017-07-06T02:37:43.149Z,1020.54
2017-07-06T02:38:45.042Z,1020.54
2017-07-06T02:39:46.907Z,1020.51
2017-07-06T02:40:48.720Z,1020.54
2017-07-06T02:41:50.601Z,1020.53
2017-07-06T02:42:52.438Z,1020.53
2017-07-06T02:43:54.267Z,1020.54
2017-07-06T02:45:08.439Z,1020.55
2017-07-06T02:46:10.336Z,1020.57
2017-07-06T02:47:12.236Z,1020.60
2017-07-06T02:48:14.131Z,1020.65
2017-07-06T02:49:15.949Z,1020.61
2017-07-06T02:50:17.782Z,1020.61
2017-07-06T02:51:19.657Z,1020.60
2017-07-06T02:52:21.554Z,1020.59
2017-07-06T02:53:23.422Z,1020.60
2017-07-06T02:54:37.576Z,1020.59
2017-07-06T02:55:39.474Z,1020.57
2017-07-06T02:56:41.369Z,1020.61
2017-07-06T02:57:43.267Z,1020.63
2017-07-06T02:58:45.105Z,1020.61
2017-07-06T02:59:46.915Z,1020.60
2017-07-06T03:00:48.813Z,1020.62
2017-07-06T03:01:50.710Z,1020.62
2017-07-06T03:02:52.611Z,1020.65
2017-07-06T03:04:06.785Z,1020.65
2017-07-06T03:05:08.678Z,1020.71
2017-07-06T03:06:10.555Z,1020.69
2017-07-06T03:07:12.453Z,1020.75
2017-07-06T03:08:14.291Z,1020.72
2017-07-06T03:09:16.124Z,1020.76
2017-07-06T03:10:17.999Z,1020.74
2017-07-06T03:11:19.887Z,1020.71
2017-07-06T03:12:21.785Z,1020.73
2017-07-06T03:13:35.927Z,1020.73
2017-07-06T03:14:37.799Z,1020.73
2017-07-06T03:15:39.669Z,1020.76
2017-07-06T03:16:41.546Z,1020.81
2017-07-06T03:17:43.356Z,1020.77
2017-07-06T03:18:45.193Z,1020.79
2017-07-06T03:19:47.090Z,1020.80
2017-07-06T03:20:48.966Z,1020.81
2017-07-06T03:21:50.859Z,1020.88
2017-07-06T03:23:05.033Z,1020.88
2017-07-06T03:24:06.930Z,1020.90
2017-07-06T03:25:08.809Z,1020.87
2017-07-06T03:26:10.707Z,1020.92
2017-07-06T03:27:12.548Z,1020.94
2017-07-06T03:28:14.385Z,1020.98
2017-07-06T03:29:16.263Z,1020.96
2017-07-06T03:30:18.157Z,1021.01
2017-07-06T03:31:20.060Z,1021.00
2017-07-06T03:32:34.238Z,1021.01
2017-07-06T03:33:36.104Z,1021.00
2017-07-06T03:34:37.976Z,1021.03
2017-07-06T03:35:39.858Z,1020.99
2017-07-06T03:36:41.696Z,1021.06
2017-07-06T03:37:43.508Z,1021.04
2017-07-06T03:38:45.387Z,1021.09
2017-07-06T03:39:47.284Z,1021.13
2017-07-06T03:40:49.179Z,1021.09
2017-07-06T03:42:03.383Z,1021.09
2017-07-06T03:43:05.285Z,1021.11
2017-07-06T03:44:07.163Z,1021.13
2017-07-06T03:45:09.037Z,1021.10
2017-07-06T03:46:10.851Z,1021.11
2017-07-06T03:47:12.666Z,1021.14
2017-07-06T03:48:14.566Z,1021.12
2017-07-06T03:49:16.445Z,1021.14
2017-07-06T03:50:18.344Z,1021.15
2017-07-06T03:51:32.494Z,1021.11
2017-07-06T03:52:34.392Z,1021.13
2017-07-06T03:53:36.293Z,1021.12
2017-07-06T03:54:38.196Z,1021.12
2017-07-06T03:55:40.037Z,1021.17
2017-07-06T03:56:41.853Z,1021.16
2017-07-06T03:57:43.757Z,1021.16
2017-07-06T03:58:45.653Z,1021.17
2017-07-06T03:59:47.524Z,1021.16
2017-07-06T04:01:01.676Z,1021.20
2017-07-06T04:02:03.620Z,1021.21
2017-07-06T04:03:05.468Z,1021.21
2017-07-06T04:04:07.343Z,1021.23
2017-07-06T04:05:09.187Z,1021.26
2017-07-06T04:06:10.999Z,1021.17
2017-07-06T04:07:12.902Z,1021.22
2017-07-06T04:08:14.804Z,1021.21
2017-07-06T04:09:16.695Z,1021.21
2017-07-06T04:10:30.851Z,1021.24
2017-07-06T04:11:32.726Z,1021.30
2017-07-06T04:12:34.627Z,1021.31
2017-07-06T04:13:36.509Z,1021.30
2017-07-06T04:14:38.351Z,1021.32
2017-07-06T04:15:40.165Z,1021.32
2017-07-06T04:16:42.066Z,1021.33
2017-07-06T04:17:43.966Z,1021.32
2017-07-06T04:18:45.869Z,1021.31
2017-07-06T04:20:00.048Z,1021.33
2017-07-06T04:21:01.952Z,1021.36
2017-07-06T04:22:03.860Z,1021.38
2017-07-06T04:23:05.762Z,1021.40
2017-07-06T04:24:07.601Z,1021.43
2017-07-06T04:25:09.415Z,1021.45
2017-07-06T04:26:11.293Z,1021.42
2017-07-06T04:27:13.196Z,1021.47
2017-07-06T04:28:15.094Z,1021.52
2017-07-06T04:29:29.331Z,1021.50
2017-07-06T04:30:31.232Z,1021.51
2017-07-06T04:31:33.133Z,1021.53
2017-07-06T04:32:35.013Z,1021.52
2017-07-06T04:33:36.855Z,1021.56
2017-07-06T04:34:38.675Z,1021.58
2017-07-06T04:35:40.581Z,1021.62
2017-07-06T04:36:42.480Z,1021.62
2017-07-06T04:37:44.387Z,1021.64
2017-07-06T04:38:58.587Z,1021.61
2017-07-06T04:40:00.501Z,1021.62
2017-07-06T04:41:02.388Z,1021.60
2017-07-06T04:42:04.287Z,1021.60
2017-07-06T04:43:06.115Z,1021.59
2017-07-06T04:44:07.956Z,1021.60
2017-07-06T04:45:09.841Z,1021.61
2017-07-06T04:46:11.751Z,1021.60
2017-07-06T04:47:13.654Z,1021.59
2017-07-06T04:48:27.837Z,1021.58
2017-07-06T04:49:29.743Z,1021.59
2017-07-06T04:50:31.649Z,1021.59
2017-07-06T04:51:33.556Z,1021.61
2017-07-06T04:52:35.405Z,1021.65
2017-07-06T04:53:37.269Z,1021.68
2017-07-06T04:54:39.121Z,1021.62
2017-07-06T04:55:41.023Z,1021.63
2017-07-06T04:56:42.898Z,1021.67
2017-07-06T04:57:57.054Z,1021.73
2017-07-06T04:58:58.960Z,1021.76
2017-07-06T05:00:00.860Z,1021.80
2017-07-06T05:01:02.744Z,1021.83
2017-07-06T05:02:04.562Z,1021.85
2017-07-06T05:03:06.386Z,1021.84
2017-07-06T05:04:08.283Z,1021.85
2017-07-06T05:05:10.189Z,1021.85
2017-07-06T05:06:12.095Z,1021.91
2017-07-06T05:07:26.244Z,1021.93
2017-07-06T05:08:28.124Z,1022.01
2017-07-06T05:09:30.003Z,1021.99
2017-07-06T05:10:31.886Z,1022.00
2017-07-06T05:11:33.700Z,1021.95
2017-07-06T05:12:35.519Z,1021.97
2017-07-06T05:13:37.407Z,1022.04
2017-07-06T05:14:39.312Z,1022.08
2017-07-06T05:15:41.217Z,1022.08
2017-07-06T05:16:55.375Z,1022.04
2017-07-06T05:17:57.285Z,1022.02
2017-07-06T05:18:59.197Z,1021.97
2017-07-06T05:20:01.101Z,1021.94
2017-07-06T05:21:02.918Z,1022.01
2017-07-06T05:22:04.741Z,1022.04
2017-07-06T05:23:06.645Z,1022.04
2017-07-06T05:24:08.531Z,1022.08
2017-07-06T05:25:10.440Z,1022.05
2017-07-06T05:26:24.620Z,1021.88
2017-07-06T05:27:26.523Z,1021.78
2017-07-06T05:28:28.408Z,1021.76
2017-07-06T05:29:30.311Z,1021.74
2017-07-06T05:30:32.155Z,1021.75
2017-07-06T05:31:33.999Z,1021.74
2017-07-06T05:32:35.898Z,1021.76
2017-07-06T05:33:37.797Z,1021.78
2017-07-06T05:34:39.672Z,1021.79
2017-07-06T05:35:53.835Z,1021.74
2017-07-06T05:36:55.742Z,1021.75
2017-07-06T05:37:57.653Z,1021.79
2017-07-06T05:38:59.557Z,1021.77
2017-07-06T05:40:01.406Z,1021.73
2017-07-06T05:41:03.243Z,1021.75
2017-07-06T05:42:05.130Z,1021.76
2017-07-06T05:43:07.025Z,1021.78
2017-07-06T05:44:08.902Z,1021.73
2017-07-06T05:45:23.061Z,1021.77
2017-07-06T05:46:24.959Z,1021.77
2017-07-06T05:47:26.844Z,1021.78
2017-07-06T05:48:28.719Z,1021.78
2017-07-06T05:49:30.562Z,1021.78
2017-07-06T05:50:32.396Z,1021.79
2017-07-06T05:51:34.274Z,1021.81
2017-07-06T05:52:36.154Z,1021.83
2017-07-06T05:53:38.051Z,1021.83
2017-07-06T05:54:52.205Z,1021.87
2017-07-06T05:55:54.083Z,1021.88
2017-07-06T05:56:55.983Z,1021.92
2017-07-06T05:57:57.898Z,1021.96
2017-07-06T05:58:59.706Z,1021.98
2017-07-06T06:00:01.524Z,1021.99
2017-07-06T06:01:03.404Z,1021.95
2017-07-06T06:02:05.286Z,1021.99
2017-07-06T06:03:07.193Z,1022.00
2017-07-06T06:04:21.372Z,1022.02
2017-07-06T06:05:23.279Z,1021.99
2017-07-06T06:06:25.179Z,1021.99
2017-07-06T06:07:27.060Z,1022.04
2017-07-06T06:08:28.905Z,1022.01
2017-07-06T06:09:30.716Z,1021.99
2017-07-06T06:10:32.595Z,1022.03
2017-07-06T06:11:34.494Z,1022.00
2017-07-06T06:12:36.370Z,1021.96
2017-07-06T06:13:50.526Z,1022.01
2017-07-06T06:14:52.423Z,1022.00
2017-07-06T06:15:54.304Z,1022.04
2017-07-06T06:16:56.180Z,1022.01
2017-07-06T06:17:58.003Z,1022.01
2017-07-06T06:18:59.994Z,1022.01
2017-07-06T06:20:01.873Z,1022.06
2017-07-06T06:21:03.753Z,1022.04
2017-07-06T06:22:05.660Z,1022.05
2017-07-06T06:23:19.874Z,1022.05
2017-07-06T06:24:21.791Z,1022.06
2017-07-06T06:25:23.666Z,1022.03
2017-07-06T06:26:25.547Z,1022.04
2017-07-06T06:27:27.393Z,1022.03
2017-07-06T06:28:29.230Z,1022.05
2017-07-06T06:29:31.111Z,1022.02
2017-07-06T06:30:33.086Z,1022.08
2017-07-06T06:31:34.976Z,1022.08
2017-07-06T06:32:49.129Z,1022.07
2017-07-06T06:33:51.031Z,1022.10
2017-07-06T06:34:52.936Z,1022.11
2017-07-06T06:35:54.841Z,1022.13
2017-07-06T06:36:56.684Z,1022.18
2017-07-06T06:37:58.498Z,1022.17
2017-07-06T06:39:00.378Z,1022.24
2017-07-06T06:40:02.257Z,1022.25
2017-07-06T06:41:04.133Z,1022.30
2017-07-06T06:42:18.287Z,1022.38
2017-07-06T06:43:20.163Z,1022.45
2017-07-06T06:44:22.046Z,1022.42
2017-07-06T06:45:23.949Z,1022.42
2017-07-06T06:46:25.791Z,1022.48
2017-07-06T06:47:27.631Z,1022.44
2017-07-06T06:48:29.513Z,1022.40
2017-07-06T06:49:31.406Z,1022.38
2017-07-06T06:50:33.289Z,1022.41
2017-07-06T06:51:47.473Z,1022.44
2017-07-06T06:52:49.379Z,1022.51
2017-07-06T06:53:51.283Z,1022.56
2017-07-06T06:54:53.185Z,1022.56
2017-07-06T06:55:55.012Z,1022.62
2017-07-06T06:56:56.852Z,1022.64
2017-07-06T06:57:58.759Z,1022.59
2017-07-06T06:59:00.634Z,1022.62
2017-07-06T07:00:02.511Z,1022.61
2017-07-06T07:01:16.669Z,1022.64
2017-07-06T07:02:18.577Z,1022.60
2017-07-06T07:03:20.472Z,1022.58
2017-07-06T07:04:22.353Z,1022.62
2017-07-06T07:05:24.173Z,1022.61
2017-07-06T07:06:26.018Z,1022.62
2017-07-06T07:07:27.896Z,1022.60
2017-07-06T07:08:29.804Z,1022.60
2017-07-06T07:09:31.707Z,1022.58
2017-07-06T07:10:45.870Z,1022.60
2017-07-06T07:11:47.749Z,1022.58
2017-07-06T07:12:49.631Z,1022.61
2017-07-06T07:13:51.541Z,1022.63
2017-07-06T07:14:53.385Z,1022.62
2017-07-06T07:15:55.228Z,1022.65
2017-07-06T07:16:57.108Z,1022.67
2017-07-06T07:17:59.008Z,1022.68
2017-07-06T07:19:00.915Z,1022.64
2017-07-06T07:20:15.100Z,1022.62
2017-07-06T07:21:17.004Z,1022.64
2017-07-06T07:22:18.908Z,1022.59
2017-07-06T07:23:20.814Z,1022.58
2017-07-06T07:24:22.665Z,1022.58
2017-07-06T07:25:24.510Z,1022.54
2017-07-06T07:26:26.413Z,1022.53
2017-07-06T07:27:28.311Z,1022.55
2017-07-06T07:28:30.200Z,1022.55
2017-07-06T07:29:44.429Z,1022.57
2017-07-06T07:30:46.309Z,1022.55
2017-07-06T07:31:48.194Z,1022.54
2017-07-06T07:32:50.106Z,1022.52
2017-07-06T07:33:51.947Z,1022.49
2017-07-06T07:34:53.773Z,1022.51
2017-07-06T07:35:55.677Z,1022.50
2017-07-06T07:36:57.580Z,1022.47
2017-07-06T07:37:59.456Z,1022.47
2017-07-06T07:39:13.641Z,1022.40
2017-07-06T07:40:15.539Z,1022.35
2017-07-06T07:41:17.423Z,1022.39
2017-07-06T07:42:19.328Z,1022.40
2017-07-06T07:43:21.151Z,1022.37
2017-07-06T07:44:22.994Z,1022.41
2017-07-06T07:45:24.903Z,1022.37
2017-07-06T07:46:26.777Z,1022.42
2017-07-06T07:47:28.681Z,1022.43
2017-07-06T07:48:42.866Z,1022.53
2017-07-06T07:49:44.763Z,1022.54
2017-07-06T07:50:46.646Z,1022.58
2017-07-06T07:51:48.555Z,1022.59
2017-07-06T07:52:50.395Z,1022.63
2017-07-06T07:53:52.214Z,1022.65
2017-07-06T07:54:54.131Z,1022.69
2017-07-06T07:55:56.034Z,1022.62
2017-07-06T07:56:57.952Z,1022.65
2017-07-06T07:58:12.132Z,1022.66
2017-07-06T07:59:14.050Z,1022.62
2017-07-06T08:00:15.978Z,1022.58
2017-07-06T08:01:17.900Z,1022.60
2017-07-06T08:02:19.778Z,1022.60
2017-07-06T08:03:21.653Z,1022.58
2017-07-06T08:04:23.574Z,1022.55
2017-07-06T08:05:25.506Z,1022.57
2017-07-06T08:06:27.441Z,1022.51
2017-07-06T08:07:41.675Z,1022.46
2017-07-06T08:08:43.578Z,1022.41
2017-07-06T08:09:45.500Z,1022.41
2017-07-06T08:10:47.426Z,1022.41
2017-07-06T08:11:49.312Z,1022.43
2017-07-06T08:12:51.201Z,1022.43
2017-07-06T08:13:53.112Z,1022.44
2017-07-06T08:14:55.006Z,1022.45
2017-07-06T08:15:56.930Z,1022.46
2017-07-06T08:17:11.152Z,1022.45
2017-07-06T08:18:13.077Z,1022.46
2017-07-06T08:19:14.981Z,1022.46
2017-07-06T08:20:16.873Z,1022.47
2017-07-06T08:21:18.723Z,1022.45
2017-07-06T08:22:20.562Z,1022.46
2017-07-06T08:23:22.469Z,1022.43
2017-07-06T08:24:24.373Z,1022.44
2017-07-06T08:25:26.297Z,1022.39
2017-07-06T08:26:40.505Z,1022.38
2017-07-06T08:27:42.409Z,1022.41
2017-07-06T08:28:44.314Z,1022.39
2017-07-06T08:29:46.225Z,1022.45
2017-07-06T08:30:48.040Z,1022.44
2017-07-06T08:31:49.881Z,1022.48
2017-07-06T08:32:51.784Z,1022.48
2017-07-06T08:33:53.662Z,1022.48
2017-07-06T08:34:55.553Z,1022.50
2017-07-06T08:36:09.742Z,1022.55
2017-07-06T08:37:11.623Z,1022.64
2017-07-06T08:38:13.524Z,1022.64
2017-07-06T08:39:15.409Z,1022.67
2017-07-06T08:40:17.253Z,1022.73
2017-07-06T08:41:19.094Z,1022.72
2017-07-06T08:42:21.024Z,1022.76
2017-07-06T08:43:22.934Z,1022.68
2017-07-06T08:44:24.813Z,1022.72
2017-07-06T08:45:38.997Z,1022.74
2017-07-06T08:46:40.898Z,1022.71
2017-07-06T08:47:42.800Z,1022.76
2017-07-06T08:48:44.680Z,1022.81
2017-07-06T08:49:46.506Z,1022.77
2017-07-06T08:50:48.346Z,1022.76
2017-07-06T08:51:50.226Z,1022.80
2017-07-06T08:52:52.127Z,1022.90
2017-07-06T08:53:54.009Z,1022.91
2017-07-06T08:55:08.170Z,1022.95
2017-07-06T08:56:10.043Z,1022.95
2017-07-06T08:57:11.920Z,1022.96
2017-07-06T08:58:13.808Z,1022.95
2017-07-06T08:59:15.655Z,1022.93
2017-07-06T09:00:17.496Z,1022.92
2017-07-06T09:01:19.400Z,1022.90
2017-07-06T09:02:21.302Z,1022.83
2017-07-06T09:03:23.205Z,1022.82
2017-07-06T09:04:37.368Z,1022.86
2017-07-06T09:05:39.278Z,1022.79
2017-07-06T09:06:41.180Z,1022.78
2017-07-06T09:07:43.083Z,1022.78
2017-07-06T09:08:44.924Z,1022.73
2017-07-06T09:09:46.746Z,1022.72
2017-07-06T09:10:48.678Z,1022.72
2017-07-06T09:11:50.562Z,1022.72
2017-07-06T09:12:52.444Z,1022.69
2017-07-06T09:14:06.605Z,1022.75
2017-07-06T09:15:08.541Z,1022.72
2017-07-06T09:16:10.466Z,1022.74
2017-07-06T09:17:12.404Z,1022.69
2017-07-06T09:18:14.268Z,1022.75
2017-07-06T09:19:16.137Z,1022.81
2017-07-06T09:20:18.045Z,1022.80
2017-07-06T09:21:19.941Z,1022.78
2017-07-06T09:22:21.848Z,1022.82
2017-07-06T09:23:36.070Z,1022.86
2017-07-06T09:24:37.969Z,1022.85
2017-07-06T09:25:39.898Z,1022.77
2017-07-06T09:26:41.789Z,1022.68
2017-07-06T09:27:43.631Z,1022.69
2017-07-06T09:28:45.495Z,1022.71
2017-07-06T09:29:47.426Z,1022.75
2017-07-06T09:30:49.358Z,1022.83
2017-07-06T09:31:51.267Z,1022.93
2017-07-06T09:33:05.454Z,1022.96
2017-07-06T09:34:07.334Z,1022.97
2017-07-06T09:35:09.239Z,1022.91
2017-07-06T09:36:11.155Z,1022.89
2017-07-06T09:37:13.005Z,1022.82
2017-07-06T09:38:14.845Z,1022.80
2017-07-06T09:39:16.728Z,1022.82
2017-07-06T09:40:18.636Z,1022.82
2017-07-06T09:41:20.544Z,1022.80
2017-07-06T09:42:34.730Z,1022.72
2017-07-06T09:43:36.619Z,1022.68
2017-07-06T09:44:38.541Z,1022.70
2017-07-06T09:45:40.444Z,1022.72
2017-07-06T09:46:42.269Z,1022.73
2017-07-06T09:47:44.138Z,1022.75
2017-07-06T09:48:46.098Z,1022.78
2017-07-06T09:49:48.055Z,1022.81
2017-07-06T09:50:50.014Z,1022.80
2017-07-06T09:52:04.226Z,1022.92
2017-07-06T09:53:06.151Z,1022.89
2017-07-06T09:54:08.030Z,1022.90
2017-07-06T09:55:09.921Z,1022.83
2017-07-06T09:56:11.777Z,1022.76
2017-07-06T09:57:13.630Z,1022.70
2017-07-06T09:58:15.555Z,1022.67
2017-07-06T09:59:17.465Z,1022.60
2017-07-06T10:00:19.391Z,1022.50
2017-07-06T10:01:33.579Z,1022.42
2017-07-06T10:02:35.484Z,1022.39
2017-07-06T10:03:37.440Z,1022.33
2017-07-06T10:04:39.378Z,1022.39
2017-07-06T10:05:41.246Z,1022.36
2017-07-06T10:06:43.121Z,1022.38
2017-07-06T10:07:45.064Z,1022.36
2017-07-06T10:08:46.970Z,1022.34
2017-07-06T10:09:48.895Z,1022.29
2017-07-06T10:11:03.113Z,1022.29
2017-07-06T10:12:05.015Z,1022.32
2017-07-06T10:13:06.909Z,1022.41
2017-07-06T10:14:08.823Z,1022.49
2017-07-06T10:15:10.886Z,1022.60
2017-07-06T10:16:12.716Z,1022.67
2017-07-06T10:17:14.638Z,1022.72
2017-07-06T10:18:16.584Z,1022.78
2017-07-06T10:19:18.524Z,1022.70
2017-07-06T10:20:32.726Z,1022.70
2017-07-06T10:21:34.672Z,1022.78
2017-07-06T10:22:36.596Z,1022.71
2017-07-06T10:23:38.501Z,1022.66
2017-07-06T10:24:40.329Z,1022.66
2017-07-06T10:25:42.148Z,1022.66
2017-07-06T10:26:44.052Z,1022.61
2017-07-06T10:27:45.927Z,1022.61
2017-07-06T10:28:47.810Z,1022.56
2017-07-06T10:30:01.969Z,1022.56
2017-07-06T10:31:03.854Z,1022.50
2017-07-06T10:32:05.765Z,1022.43
2017-07-06T10:33:07.668Z,1022.44
2017-07-06T10:34:09.498Z,1022.45
2017-07-06T10:35:11.340Z,1022.49
2017-07-06T10:36:13.245Z,1022.45
2017-07-06T10:37:15.125Z,1022.47
2017-07-06T10:38:17.027Z,1022.43
2017-07-06T10:39:31.190Z,1022.42
2017-07-06T10:40:33.098Z,1022.45
2017-07-06T10:41:35.027Z,1022.46
2017-07-06T10:42:36.940Z,1022.55
2017-07-06T10:43:38.788Z,1022.53
2017-07-06T10:44:40.609Z,1022.44
2017-07-06T10:45:42.516Z,1022.44
2017-07-06T10:46:44.402Z,1022.43
2017-07-06T10:47:46.305Z,1022.40
2017-07-06T10:49:00.488Z,1022.37
2017-07-06T10:50:02.366Z,1022.32
2017-07-06T10:51:04.246Z,1022.37
2017-07-06T10:52:06.135Z,1022.37
2017-07-06T10:53:08.000Z,1022.37
2017-07-06T10:54:09.824Z,1022.36
2017-07-06T10:55:11.753Z,1022.32
2017-07-06T10:56:13.660Z,1022.29
2017-07-06T10:57:15.581Z,1022.24
2017-07-06T10:58:29.744Z,1022.20
2017-07-06T10:59:31.634Z,1022.16
2017-07-06T11:00:33.545Z,1022.17
2017-07-06T11:01:35.434Z,1022.10
2017-07-06T11:02:37.279Z,1022.11
2017-07-06T11:03:39.095Z,1022.13
2017-07-06T11:04:40.975Z,1022.12
2017-07-06T11:05:42.886Z,1022.10
2017-07-06T11:06:44.757Z,1022.09
2017-07-06T11:07:58.922Z,1022.09
2017-07-06T11:09:00.829Z,1022.11
2017-07-06T11:10:02.734Z,1022.18
2017-07-06T11:11:04.634Z,1022.20
2017-07-06T11:12:06.461Z,1022.24
2017-07-06T11:13:08.298Z,1022.22
2017-07-06T11:14:10.182Z,1022.20
2017-07-06T11:15:12.082Z,1022.26
2017-07-06T11:16:13.987Z,1022.29
2017-07-06T11:17:28.147Z,1022.29
2017-07-06T11:18:30.020Z,1022.29
2017-07-06T11:19:31.900Z,1022.32
2017-07-06T11:20:33.865Z,1022.34
2017-07-06T11:21:35.716Z,1022.29
2017-07-06T11:22:37.558Z,1022.39
2017-07-06T11:23:39.465Z,1022.41
2017-07-06T11:24:41.344Z,1022.41
2017-07-06T11:25:43.336Z,1022.45
2017-07-06T11:26:57.605Z,1022.43
2017-07-06T11:27:59.576Z,1022.42
2017-07-06T11:29:01.446Z,1022.46
2017-07-06T11:30:03.478Z,1022.50
2017-07-06T11:31:05.398Z,1022.49
2017-07-06T11:32:07.240Z,1022.42
2017-07-06T11:33:09.674Z,1022.42
2017-07-06T11:34:11.871Z,1022.40
2017-07-06T11:35:13.793Z,1022.34
2017-07-06T11:36:27.977Z,1022.36
2017-07-06T11:37:29.883Z,1022.35
2017-07-06T11:38:31.771Z,1022.33
2017-07-06T11:39:33.679Z,1022.34
2017-07-06T11:40:35.600Z,1022.35
2017-07-06T11:41:37.483Z,1022.34
2017-07-06T11:42:39.369Z,1022.27
2017-07-06T11:43:41.250Z,1022.25
2017-07-06T11:44:43.156Z,1022.24
2017-07-06T11:45:57.345Z,1022.22
2017-07-06T11:46:59.252Z,1022.27
2017-07-06T11:48:01.138Z,1022.27
2017-07-06T11:49:03.042Z,1022.23
2017-07-06T11:50:04.893Z,1022.22
2017-07-06T11:51:06.739Z,1022.22
2017-07-06T11:52:08.646Z,1022.27
2017-07-06T11:53:10.569Z,1022.27
2017-07-06T11:54:12.445Z,1022.25
2017-07-06T11:55:26.605Z,1022.16
2017-07-06T11:56:28.491Z,1022.04
2017-07-06T11:57:30.393Z,1021.98
2017-07-06T11:58:32.278Z,1021.94
2017-07-06T11:59:34.103Z,1021.94
2017-07-06T12:00:35.914Z,1021.93
2017-07-06T12:01:37.799Z,1021.94
2017-07-06T12:02:39.705Z,1021.93
2017-07-06T12:03:41.583Z,1021.91
2017-07-06T12:04:55.746Z,1021.96
2017-07-06T12:05:57.653Z,1021.97
2017-07-06T12:06:59.558Z,1022.02
2017-07-06T12:08:01.439Z,1022.03
2017-07-06T12:09:03.291Z,1022.15
2017-07-06T12:10:05.110Z,1022.21
2017-07-06T12:11:07.021Z,1022.26
2017-07-06T12:12:08.932Z,1022.32
2017-07-06T12:13:10.832Z,1022.32
2017-07-06T12:14:24.994Z,1022.23
2017-07-06T12:15:26.902Z,1022.20
2017-07-06T12:16:28.837Z,1022.20
2017-07-06T12:17:30.743Z,1022.23
2017-07-06T12:18:32.561Z,1022.16
2017-07-06T12:19:34.407Z,1022.15
2017-07-06T12:20:36.389Z,1022.10
2017-07-06T12:21:38.316Z,1022.04
2017-07-06T12:22:40.248Z,1021.98
2017-07-06T12:23:54.426Z,1022.02
2017-07-06T12:24:56.325Z,1022.02
2017-07-06T12:25:58.206Z,1022.07
2017-07-06T12:27:00.143Z,1022.14
2017-07-06T12:28:01.954Z,1022.10
2017-07-06T12:29:03.796Z,1022.09
2017-07-06T12:30:05.705Z,1022.15
2017-07-06T12:31:07.606Z,1022.10
2017-07-06T12:32:09.489Z,1022.12
2017-07-06T12:33:23.747Z,1022.07
2017-07-06T12:34:25.653Z,1022.06
2017-07-06T12:35:27.534Z,1021.99
2017-07-06T12:36:29.416Z,1022.05
2017-07-06T12:37:31.245Z,1022.14
2017-07-06T12:38:33.082Z,1022.10
2017-07-06T12:39:34.969Z,1022.10
2017-07-06T12:40:36.891Z,1022.13
2017-07-06T12:41:38.772Z,1022.08
2017-07-06T12:42:52.981Z,1022.04
2017-07-06T12:43:54.893Z,1022.09
2017-07-06T12:44:56.802Z,1022.08